Time;durP1;ratioP1;P1;durP2;ratioP2;P2;SDS_P1;SDS_P2;PMS_P1;PMS_P2;Temp;Humidity;BMP_temperature;BMP_pressure;BME280_temperature;BME280_humidity;BME280_pressure;Samples;Min_cycle;Max_cycle;Signal;HPM_P1;HPM_P2
2022/03/09 00:01:31;;;;;;;7.38;2.55;;;;;;;-1.99;64.19;100625.00;5025241;28;20099;-63
2022/03/09 00:04:15;;;;;;;8.00;3.05;;;;;;;-1.94;64.09;100630.41;5027693;28;20520;-62
2022/03/09 00:07:00;;;;;;;8.18;3.47;;;;;;;-2.13;64.22;100631.28;5031380;28;20102;-64
2022/03/09 00:09:44;;;;;;;5.80;3.03;;;;;;;-2.14;64.34;100624.31;5031059;28;20045;-63
2022/03/09 00:12:29;;;;;;;6.55;2.70;;;;;;;-2.08;64.98;100629.78;5016421;28;20052;-63
2022/03/09 00:15:13;;;;;;;5.95;2.53;;;;;;;-2.07;64.51;100634.16;5029854;28;20101;-66
2022/03/09 00:17:58;;;;;;;5.88;2.83;;;;;;;-2.33;63.65;100605.28;5002539;28;20532;-63
2022/03/09 00:20:42;;;;;;;5.30;2.65;;;;;;;-2.19;64.28;100636.22;5028602;28;20115;-62
2022/03/09 00:23:27;;;;;;;;;;;;;;;-2.22;64.70;100638.69;5019127;28;20130;-63
2022/03/09 00:26:12;;;;;;;7.50;2.90;;;;;;;-2.43;64.64;100637.75;5004065;28;19928;-62
2022/03/09 00:28:57;;;;;;;9.02;2.50;;;;;;;-2.68;64.60;100606.31;5031313;28;20091;-62
2022/03/09 00:31:41;;;;;;;10.52;3.08;;;;;;;-2.68;65.36;100637.47;5016240;28;20420;-61
2022/03/09 00:34:26;;;;;;;6.85;2.83;;;;;;;-2.61;65.74;100638.63;5030416;28;20053;-67
2022/03/09 00:37:11;;;;;;;6.72;2.90;;;;;;;-2.92;66.22;100628.53;5030625;28;20085;-63
2022/03/09 00:39:55;;;;;;;7.43;2.65;;;;;;;-2.78;67.03;100635.25;5000136;28;20563;-62
2022/03/09 00:42:40;;;;;;;11.88;3.63;;;;;;;-2.82;67.02;100641.09;5030058;28;20052;-67
2022/03/09 00:45:25;;;;;;;5.40;2.72;;;;;;;-2.84;66.76;100650.53;5014899;28;20295;-62
2022/03/09 00:48:09;;;;;;;6.60;3.38;;;;;;;-3.38;66.94;100610.72;5015664;28;20098;-63
2022/03/09 00:50:54;;;;;;;7.15;3.35;;;;;;;-3.25;67.69;100658.06;5001560;28;20056;-63
2022/03/09 00:53:39;;;;;;;8.38;3.47;;;;;;;-3.29;67.77;100655.25;5001752;28;20061;-65
2022/03/09 00:56:23;;;;;;;;;;;;;;;-3.52;68.72;100655.84;5030065;28;20077;-62
2022/03/09 00:59:08;;;;;;;8.80;3.53;;;;;;;-3.84;69.36;100604.13;5029084;28;19932;-64
2022/03/09 01:01:52;;;;;;;6.57;3.10;;;;;;;-3.67;69.50;100650.78;5015523;28;20056;-64
2022/03/09 01:04:37;;;;;;;7.32;3.25;;;;;;;-3.57;69.42;100655.59;5028681;28;20052;-63
2022/03/09 01:07:21;;;;;;;6.22;2.72;;;;;;;-3.45;68.98;100671.75;5015445;28;20555;-62
2022/03/09 01:10:08;;;;;;;7.68;3.30;;;;;;;-3.41;67.79;100663.31;5015068;28;20060;-63
2022/03/09 01:12:53;;;;;;;12.55;3.72;;;;;;;-3.46;67.79;100666.47;5015265;28;20510;-64
2022/03/09 01:15:38;;;;;;;9.63;3.58;;;;;;;-3.41;67.82;100663.31;5015978;28;20099;-63
2022/03/09 01:18:23;;;;;;;9.90;3.30;;;;;;;-3.55;66.83;100664.34;5027733;28;20127;-63
2022/03/09 01:21:07;;;;;;;7.50;3.92;;;;;;;-3.81;67.59;100667.31;5015764;28;20059;-62
2022/03/09 01:23:52;;;;;;;6.72;3.40;;;;;;;-3.88;67.88;100664.34;5013588;28;20600;-63
2022/03/09 01:26:36;;;;;;;7.93;3.47;;;;;;;-3.87;68.08;100659.25;5030119;28;20052;-63
2022/03/09 01:29:21;;;;;;;7.50;3.40;;;;;;;-3.82;68.44;100669.81;5001822;28;20060;-63
2022/03/09 01:32:07;;;;;;;7.97;3.55;;;;;;;-4.01;68.14;100667.09;5030166;28;20048;-64
2022/03/09 01:34:51;;;;;;;6.03;3.38;;;;;;;-3.95;67.93;100676.09;5030063;28;20064;-63
2022/03/09 01:37:36;;;;;;;7.35;2.60;;;;;;;-4.05;67.74;100685.88;5027622;28;20061;-64
2022/03/09 01:40:21;;;;;;;;;;;;;;;-3.96;68.84;100673.44;5015321;28;20417;-62
2022/03/09 01:43:05;;;;;;;8.68;3.72;;;;;;;-3.97;68.75;100684.59;5012730;28;19928;-63
2022/03/09 01:45:50;;;;;;;6.97;3.65;;;;;;;-3.99;68.68;100688.81;4999974;28;20196;-63
2022/03/09 01:48:34;;;;;;;7.03;2.83;;;;;;;-4.08;68.44;100702.16;5027614;28;20190;-62
2022/03/09 01:51:19;;;;;;;9.20;3.45;;;;;;;-4.30;68.85;100699.28;5026567;28;20140;-63
2022/03/09 01:54:04;;;;;;;7.10;3.17;;;;;;;-4.20;69.55;100693.75;5027549;28;20052;-64
2022/03/09 01:56:50;;;;;;;9.65;3.78;;;;;;;-4.32;69.15;100658.59;5010884;28;20044;-64
2022/03/09 01:59:35;;;;;;;8.90;3.85;;;;;;;-4.19;68.91;100703.31;5028037;28;20609;-64
2022/03/09 02:02:20;;;;;;;7.18;2.80;;;;;;;-4.30;67.92;100707.03;5010474;28;20428;-63
2022/03/09 02:05:06;;;;;;;9.15;3.35;;;;;;;-4.32;68.35;100703.47;4985159;28;20080;-64
2022/03/09 02:10:55;;;;;;;11.48;3.83;;;;;;;-4.81;69.83;100706.81;5025905;28;20590;-62
2022/03/09 02:13:40;;;;;;;8.93;3.35;;;;;;;-4.90;71.15;100712.34;4998955;28;20147;-65
2022/03/09 02:16:24;;;;;;;7.25;2.83;;;;;;;-4.94;70.83;100720.75;5013134;28;20129;-66
2022/03/09 02:19:08;;;;;;;9.10;3.33;;;;;;;-5.11;71.98;100712.84;5030900;28;20084;-63
2022/03/09 02:22:04;;;;;;;10.18;3.95;;;;;;;-4.99;72.15;100722.19;5002508;28;20091;-63
2022/03/09 02:24:50;;;;;;;9.40;3.50;;;;;;;-5.03;72.04;100728.00;5027224;28;20103;-64
2022/03/09 02:27:37;;;;;;;8.40;3.47;;;;;;;-5.46;71.95;100673.81;5027933;28;20053;-66
2022/03/09 02:30:21;;;;;;;8.32;3.53;;;;;;;-5.19;72.08;100734.78;5000233;28;20103;-65
2022/03/09 02:33:06;;;;;;;10.68;3.10;;;;;;;-5.29;72.80;100738.53;5013272;28;20420;-65
2022/03/09 02:35:53;;;;;;;9.77;3.60;;;;;;;-5.26;73.65;100735.25;5013926;28;20071;-65
2022/03/09 02:38:38;;;;;;;10.75;3.45;;;;;;;-5.29;73.48;100735.94;4997848;28;20099;-64
2022/03/09 02:41:22;;;;;;;7.40;3.63;;;;;;;-5.36;73.29;100748.44;5013964;28;20528;-62
2022/03/09 02:44:07;;;;;;;8.77;3.35;;;;;;;-5.68;74.33;100746.56;5012969;28;20845;-63
2022/03/09 02:46:52;;;;;;;9.65;3.85;;;;;;;-5.65;75.46;100753.63;5013954;28;20500;-64
2022/03/09 02:49:36;;;;;;;12.73;4.00;;;;;;;-5.62;75.48;100739.19;5028503;28;20056;-64
2022/03/09 02:52:22;;;;;;;10.02;3.70;;;;;;;-5.72;75.37;100733.38;5012432;28;20052;-63
2022/03/09 02:55:08;;;;;;;11.18;3.63;;;;;;;-5.65;76.02;100754.47;4999845;28;20107;-62
2022/03/09 02:57:53;;;;;;;13.32;4.05;;;;;;;-5.61;75.89;100753.88;5026378;28;20094;-64
2022/03/09 03:00:37;;;;;;;8.52;3.70;;;;;;;-5.70;75.81;100762.78;5028172;28;20432;-63
2022/03/09 03:03:22;;;;;;;11.35;4.22;;;;;;;-5.94;76.04;100764.81;4999187;28;20103;-64
2022/03/09 03:06:07;;;;;;;;;;;;;;;-5.94;76.61;100767.41;4986910;28;20103;-66
2022/03/09 03:08:52;;;;;;;11.18;3.80;;;;;;;-6.00;76.79;100751.56;5030641;28;19987;-65
2022/03/09 03:11:38;;;;;;;9.23;3.83;;;;;;;-6.08;76.33;100721.81;5027691;28;20162;-68
2022/03/09 03:14:23;;;;;;;13.63;4.20;;;;;;;-6.24;76.77;100760.38;4985894;28;20148;-64
2022/03/09 03:17:07;;;;;;;8.93;3.83;;;;;;;-6.29;77.87;100766.94;5026412;28;20123;-64
2022/03/09 03:19:52;;;;;;;10.18;4.00;;;;;;;-6.30;78.97;100774.56;5026762;28;20056;-64
2022/03/09 03:22:36;;;;;;;7.95;3.70;;;;;;;-6.27;78.79;100772.19;5027922;28;20056;-64
2022/03/09 03:25:21;;;;;;;;;;;;;;;-6.12;78.89;100779.22;5013415;28;20162;-63
2022/03/09 03:28:06;;;;;;;11.23;3.80;;;;;;;-6.27;77.85;100762.78;5014640;28;19928;-65
2022/03/09 03:30:51;;;;;;;7.57;3.33;;;;;;;-6.24;77.53;100773.28;4999506;28;20175;-67
2022/03/09 03:33:36;;;;;;;7.32;3.63;;;;;;;-6.32;77.76;100781.34;5005335;28;20099;-63
2022/03/09 03:36:21;;;;;;;9.48;3.72;;;;;;;-6.38;77.71;100780.94;5032437;28;20056;-65
2022/03/09 03:39:05;;;;;;;12.55;4.00;;;;;;;-6.54;78.42;100781.69;5033805;28;20060;-66
2022/03/09 03:41:50;;;;;;;8.68;3.83;;;;;;;-6.52;78.83;100774.06;5029407;28;20362;-62
2022/03/09 03:44:34;;;;;;;8.43;3.55;;;;;;;-6.37;79.16;100777.59;5016733;28;20076;-63
2022/03/09 03:47:19;;;;;;;16.75;3.80;;;;;;;-6.41;79.15;100773.03;5017754;28;20091;-64
2022/03/09 03:50:04;;;;;;;16.02;3.63;;;;;;;-6.42;78.73;100779.88;5017557;28;20134;-64
2022/03/09 03:52:48;;;;;;;14.75;4.28;;;;;;;-6.63;79.00;100762.16;4989308;28;20093;-64
2022/03/09 03:55:33;;;;;;;7.72;3.47;;;;;;;-6.49;79.29;100780.28;5014827;28;20048;-63
2022/03/09 03:58:17;;;;;;;11.82;3.88;;;;;;;-6.56;79.27;100767.78;5031649;28;20413;-63
2022/03/09 04:01:02;;;;;;;12.15;4.47;;;;;;;-6.31;78.99;100801.19;5030742;28;20591;-65
2022/03/09 04:03:47;;;;;;;;;;;;;;;-6.30;78.99;100800.38;5033533;28;20262;-63
2022/03/09 04:06:32;;;;;;;7.45;3.85;;;;;;;-6.69;78.65;100751.50;5020259;28;20306;-64
2022/03/09 04:09:17;;;;;;;9.30;4.15;;;;;;;-6.49;78.79;100794.88;5032400;28;20401;-64
2022/03/09 04:12:01;;;;;;;14.57;4.85;;;;;;;-6.69;79.12;100790.16;5031415;28;20052;-64
2022/03/09 04:14:48;;;;;;;11.38;4.45;;;;;;;-6.57;79.45;100809.00;5015245;28;20076;-65
2022/03/09 04:17:42;;;;;;;15.00;4.47;;;;;;;-6.52;78.83;100803.28;5016745;28;20099;-64
2022/03/09 04:20:27;;;;;;;9.30;3.88;;;;;;;-6.67;79.06;100799.78;5017644;28;20069;-63
2022/03/09 04:23:12;;;;;;;10.20;4.15;;;;;;;-6.65;79.45;100813.63;5017634;28;20152;-65
2022/03/09 04:25:56;;;;;;;;;;;;;;;-6.58;79.10;100810.66;5033043;28;20417;-63
2022/03/09 04:28:41;;;;;;;9.98;3.78;;;;;;;-6.65;79.08;100818.78;5015218;28;19939;-65
2022/03/09 04:31:26;;;;;;;10.77;3.63;;;;;;;-6.59;78.50;100824.38;5030894;28;20096;-64
2022/03/09 04:34:11;;;;;;;10.98;3.50;;;;;;;-6.73;78.49;100808.81;5000642;28;20095;-66
2022/03/09 04:36:55;;;;;;;12.43;5.03;;;;;;;-6.74;78.94;100831.09;5030917;28;20056;-64
2022/03/09 04:39:39;;;;;;;7.82;3.45;;;;;;;-6.81;78.36;100828.06;5015661;28;20444;-63
2022/03/09 04:42:26;;;;;;;8.02;4.10;;;;;;;-6.78;78.88;100833.38;5015489;28;20060;-63
2022/03/09 04:45:11;;;;;;;12.07;3.63;;;;;;;-7.06;79.05;100768.88;5030425;28;20056;-63
2022/03/09 04:47:55;;;;;;;12.52;3.53;;;;;;;-6.66;78.98;100835.06;5028648;28;20053;-64
2022/03/09 04:50:40;;;;;;;11.27;4.25;;;;;;;-6.61;78.01;100845.69;5001608;28;20056;-64
2022/03/09 04:53:25;;;;;;;10.65;4.15;;;;;;;-6.91;77.81;100780.16;4986188;28;20099;-65
2022/03/09 04:56:11;;;;;;;12.52;4.35;;;;;;;-6.29;77.58;100851.19;5015617;28;20334;-63
2022/03/09 04:58:56;;;;;;;9.45;4.13;;;;;;;-6.63;76.50;100800.84;5030310;28;20052;-64
2022/03/09 05:01:40;;;;;;;12.05;3.67;;;;;;;-6.36;75.85;100852.50;5015173;28;20115;-63
2022/03/09 05:04:25;;;;;;;14.27;4.28;;;;;;;-6.25;75.78;100858.34;5001525;28;20064;-63
2022/03/09 05:07:09;;;;;;;11.52;3.63;;;;;;;-6.19;75.04;100858.72;5012936;28;20096;-65
2022/03/09 05:09:55;;;;;;;10.88;4.10;;;;;;;-6.12;74.68;100869.53;5000994;28;20073;-63
2022/03/09 05:12:40;;;;;;;15.93;4.43;;;;;;;-6.23;74.66;100865.38;5027190;28;20048;-63
2022/03/09 05:15:25;;;;;;;11.40;3.92;;;;;;;-6.10;74.21;100879.91;5029857;28;20556;-64
2022/03/09 05:18:09;;;;;;;10.02;3.75;;;;;;;-6.01;73.93;100870.19;5014974;28;20798;-64
2022/03/09 05:20:54;;;;;;;14.48;3.28;;;;;;;-5.93;72.55;100846.63;5014935;28;20080;-65
2022/03/09 05:23:38;;;;;;;7.57;3.60;;;;;;;-5.64;71.33;100887.09;5030348;28;20426;-65
2022/03/09 05:26:23;;;;;;;9.25;3.40;;;;;;;-5.59;70.37;100888.28;5028406;28;20159;-67
2022/03/09 05:29:07;;;;;;;16.58;3.90;;;;;;;-5.47;69.54;100886.44;5001491;28;20560;-65
2022/03/09 05:31:52;;;;;;;9.40;3.80;;;;;;;-5.36;68.77;100875.06;5028221;28;20203;-63
2022/03/09 05:34:36;;;;;;;12.70;3.45;;;;;;;-5.14;67.79;100888.47;5030851;28;20421;-64
2022/03/09 05:37:22;;;;;;;10.13;4.03;;;;;;;-5.02;65.79;100884.88;5014222;28;20057;-65
2022/03/09 05:40:08;;;;;;;17.00;4.43;;;;;;;-4.95;65.88;100899.06;5015390;28;20110;-63
2022/03/09 05:42:53;;;;;;;9.63;4.00;;;;;;;-5.09;64.64;100882.78;5015525;28;20059;-65
2022/03/09 05:45:37;;;;;;;11.93;4.35;;;;;;;-4.90;64.54;100890.78;5028606;28;20056;-65
2022/03/09 05:48:22;;;;;;;11.20;3.58;;;;;;;-4.92;63.36;100838.09;4986820;28;20100;-64
2022/03/09 05:51:07;;;;;;;16.27;4.85;;;;;;;-4.52;62.50;100900.75;5010563;28;20543;-64
2022/03/09 05:53:51;;;;;;;10.40;3.95;;;;;;;-4.46;61.75;100900.22;5012436;28;20528;-64
2022/03/09 05:56:36;;;;;;;15.35;3.90;;;;;;;-4.36;61.25;100911.16;5012630;28;20072;-64
2022/03/09 05:59:20;;;;;;;8.70;4.43;;;;;;;-4.45;60.69;100866.66;5028284;28;20114;-63
2022/03/09 06:02:05;;;;;;;14.70;4.30;;;;;;;-4.06;58.94;100914.56;5013851;28;20523;-63
2022/03/09 06:04:49;;;;;;;14.63;4.40;;;;;;;-3.98;58.34;100911.63;5026790;28;20140;-65
2022/03/09 06:07:34;;;;;;;10.45;4.15;;;;;;;-3.67;58.03;100919.34;5028122;28;20047;-64
2022/03/09 06:10:19;;;;;;;12.30;3.72;;;;;;;-3.54;56.99;100914.91;5012966;28;20133;-67
2022/03/09 06:13:03;;;;;;;15.00;4.25;;;;;;;-3.53;55.67;100914.09;5027575;28;20378;-63
2022/03/09 06:15:49;;;;;;;11.13;4.22;;;;;;;-3.43;54.90;100920.66;5011811;28;20214;-63
2022/03/09 06:18:34;;;;;;;10.93;3.90;;;;;;;-3.31;54.34;100929.09;5026130;28;20056;-65
2022/03/09 06:21:18;;;;;;;11.35;4.00;;;;;;;-3.41;53.99;100891.41;5027271;28;20107;-65
2022/03/09 06:24:03;;;;;;;29.30;5.65;;;;;;;-2.94;53.89;100922.41;5011308;28;20409;-66
2022/03/09 06:26:47;;;;;;;12.23;4.43;;;;;;;-3.01;52.71;100929.00;5012596;28;20045;-64
2022/03/09 06:29:32;;;;;;;11.73;3.97;;;;;;;-2.93;52.71;100927.69;5027061;28;20060;-64
2022/03/09 06:32:17;;;;;;;13.63;4.00;;;;;;;-2.82;52.17;100923.03;5028900;28;20418;-63
2022/03/09 06:35:03;;;;;;;15.73;4.05;;;;;;;-2.83;52.13;100916.97;5027709;28;20072;-65
2022/03/09 06:37:48;;;;;;;10.18;4.80;;;;;;;-2.68;51.94;100932.44;5013307;28;20068;-64
2022/03/09 06:40:35;;;;;;;14.77;4.45;;;;;;;-2.88;51.30;100933.13;5028787;28;20044;-64
2022/03/09 06:43:20;;;;;;;15.55;4.72;;;;;;;-2.72;51.27;100914.91;5013497;28;20099;-66
2022/03/09 06:46:04;;;;;;;13.52;4.70;;;;;;;-2.57;51.19;100924.34;5014196;28;20049;-65
2022/03/09 06:48:49;;;;;;;13.98;4.35;;;;;;;-2.62;50.09;100879.09;5026868;28;20421;-63
2022/03/09 06:51:33;;;;;;;8.60;3.83;;;;;;;-2.44;49.62;100895.59;5013284;28;20575;-64
2022/03/09 06:54:18;;;;;;;11.35;4.43;;;;;;;-2.21;48.99;100917.50;5027360;28;20128;-65
2022/03/09 06:57:02;;;;;;;17.48;4.78;;;;;;;-1.92;48.63;100935.34;5012980;28;20162;-65
2022/03/09 06:59:49;;;;;;;9.48;3.60;;;;;;;-1.98;47.24;100935.09;5030809;28;20148;-64
2022/03/09 07:02:34;;;;;;;11.20;4.50;;;;;;;-1.80;47.28;100931.66;5017220;28;20049;-66
2022/03/09 07:05:19;;;;;;;11.43;4.75;;;;;;;-1.51;46.87;100944.28;4979662;28;20102;-64
2022/03/09 07:08:04;;;;;;;14.80;4.35;;;;;;;-1.24;46.63;100942.03;4991362;28;20049;-64
2022/03/09 07:10:50;;;;;;;14.40;4.25;;;;;;;-1.16;45.63;100933.78;5008366;28;20065;-64
2022/03/09 07:13:34;;;;;;;11.93;4.43;;;;;;;-0.82;45.47;100942.22;5010451;28;20087;-64
2022/03/09 07:16:19;;;;;;;9.82;3.40;;;;;;;-0.96;44.18;100898.19;5013489;28;20141;-63
2022/03/09 07:19:03;;;;;;;9.52;3.85;;;;;;;-0.70;43.43;100916.72;4993415;28;20052;-63
2022/03/09 07:21:48;;;;;;;11.07;4.60;;;;;;;-0.12;43.16;100931.34;4992063;28;20144;-66
2022/03/09 07:24:33;;;;;;;13.15;4.47;;;;;;;0.08;42.33;100937.38;5008883;28;20060;-64
2022/03/09 07:27:18;;;;;;;9.80;3.58;;;;;;;0.09;41.66;100937.41;4992741;28;20103;-64
2022/03/09 07:30:04;;;;;;;13.23;3.85;;;;;;;0.19;40.95;100932.59;4993604;28;20069;-64
2022/03/09 07:32:49;;;;;;;6.63;3.22;;;;;;;0.40;40.58;100938.63;5008077;28;20064;-64
2022/03/09 07:35:34;;;;;;;14.93;3.30;;;;;;;0.62;39.37;100942.13;4982653;28;20049;-65
2022/03/09 07:38:18;;;;;;;13.43;3.13;;;;;;;0.87;38.46;100938.72;5019028;28;20065;-64
2022/03/09 07:41:03;;;;;;;17.58;3.33;;;;;;;1.04;38.09;100942.81;5016940;28;20048;-65
2022/03/09 07:43:47;;;;;;;7.55;3.05;;;;;;;0.78;36.05;100946.22;4989471;28;20044;-63
2022/03/09 07:46:32;;;;;;;7.47;3.38;;;;;;;0.59;36.13;100925.47;4983558;28;20125;-64
2022/03/09 07:49:18;;;;;;;7.95;3.22;;;;;;;0.71;36.04;100949.41;5020447;28;20127;-63
2022/03/09 07:52:03;;;;;;;8.63;3.42;;;;;;;0.71;35.86;100938.97;5022411;28;20057;-64
2022/03/09 07:54:48;;;;;;;8.27;3.70;;;;;;;0.54;35.55;100946.16;5003496;28;20049;-64
2022/03/09 07:57:33;;;;;;;12.20;3.65;;;;;;;0.50;35.02;100897.28;5015351;28;20052;-64
2022/03/09 08:00:18;;;;;;;9.63;3.60;;;;;;;0.89;35.16;100948.38;4987114;28;20128;-67
2022/03/09 08:03:02;;;;;;;6.22;3.58;;;;;;;0.84;34.55;100946.41;5019152;28;20067;-63
2022/03/09 08:05:46;;;;;;;16.35;4.13;;;;;;;0.68;34.54;100950.19;5016635;28;20096;-63
2022/03/09 08:08:31;;;;;;;6.23;3.20;;;;;;;1.10;34.30;100937.84;4996253;28;20133;-64
2022/03/09 08:11:15;;;;;;;7.03;3.10;;;;;;;1.37;33.47;100944.00;5014348;28;20140;-64
2022/03/09 08:14:00;;;;;;;9.90;3.43;;;;;;;2.34;32.93;100952.53;4988902;28;20442;-63
2022/03/09 08:16:44;;;;;;;7.45;3.60;;;;;;;3.29;31.71;100944.94;5016833;28;20283;-63
2022/03/09 08:19:29;;;;;;;12.55;3.92;;;;;;;3.94;30.30;100945.81;5018234;28;20426;-65
2022/03/09 08:22:13;;;;;;;9.50;3.30;;;;;;;3.69;28.94;100919.78;4985738;28;20533;-63
2022/03/09 08:24:58;;;;;;;13.75;3.95;;;;;;;3.93;29.24;100941.44;5014821;28;20040;-62
2022/03/09 08:27:43;;;;;;;7.00;3.22;;;;;;;4.31;28.12;100911.72;5020587;28;20084;-63
2022/03/09 08:30:28;;;;;;;9.48;3.03;;;;;;;5.36;26.17;100941.13;5001904;28;20123;-65
2022/03/09 08:33:14;;;;;;;12.73;3.33;;;;;;;6.16;26.90;100954.00;5019806;28;20556;-64
2022/03/09 08:35:59;;;;;;;8.32;2.97;;;;;;;6.67;24.78;100953.06;5020942;28;20103;-63
2022/03/09 08:38:44;;;;;;;10.77;3.17;;;;;;;8.10;24.10;100949.47;4988608;28;20554;-64
2022/03/09 08:41:30;;;;;;;10.55;3.78;;;;;;;8.78;22.68;100949.13;5013140;28;20107;-63
2022/03/09 08:44:16;;;;;;;7.57;3.30;;;;;;;9.27;22.61;100953.78;5019106;28;20111;-65
2022/03/09 08:47:00;;;;;;;7.90;3.25;;;;;;;10.56;21.63;100945.16;5001722;28;20214;-65
2022/03/09 08:49:45;;;;;;;4.78;2.80;;;;;;;11.60;20.26;100951.06;5020358;28;20048;-63
2022/03/09 08:52:29;;;;;;;11.43;2.65;;;;;;;12.82;18.61;100958.94;5003875;28;20075;-62
2022/03/09 08:55:14;;;;;;;6.20;2.63;;;;;;;12.47;18.80;100937.09;5017211;28;20053;-64
2022/03/09 08:58:00;;;;;;;5.72;2.83;;;;;;;13.60;16.69;100949.16;4990438;28;20088;-63
2022/03/09 09:00:45;;;;;;;7.18;3.53;;;;;;;14.46;16.99;100964.78;4983975;28;20057;-64
2022/03/09 09:03:30;;;;;;;;;;;;;;;15.77;18.19;100976.50;4997771;28;20052;-65
2022/03/09 09:06:15;;;;;;;6.22;2.60;;;;;;;15.84;15.43;100969.19;4988715;28;20387;-64
2022/03/09 09:09:01;;;;;;;6.80;2.95;;;;;;;16.31;15.60;100975.22;5004332;28;20099;-63
2022/03/09 09:11:47;;;;;;;6.47;3.00;;;;;;;16.54;14.09;100975.56;4992560;28;20096;-65
2022/03/09 09:14:32;;;;;;;3.92;2.65;;;;;;;17.09;14.33;100943.72;5019740;28;20414;-64
2022/03/09 09:17:16;;;;;;;12.10;6.22;;;;;;;17.88;13.00;100971.81;5001821;28;20045;-66
2022/03/09 09:20:01;;;;;;;7.15;2.97;;;;;;;18.53;12.37;100984.06;5001473;28;20430;-64
2022/03/09 09:22:46;;;;;;;6.93;3.17;;;;;;;19.06;12.17;100984.94;4982813;28;20049;-64
2022/03/09 09:25:31;;;;;;;5.97;2.53;;;;;;;18.26;12.06;100957.19;4989847;28;20145;-64
2022/03/09 09:28:17;;;;;;;4.13;2.47;;;;;;;18.90;12.11;100983.72;5020326;28;20559;-63
2022/03/09 09:31:02;;;;;;;9.88;2.95;;;;;;;19.44;11.54;100973.69;5013279;28;20056;-63
2022/03/09 09:33:46;;;;;;;4.88;2.80;;;;;;;19.63;11.52;100983.72;5010172;28;20405;-63
2022/03/09 09:36:31;;;;;;;3.97;2.40;;;;;;;19.54;11.35;100996.66;5008999;28;20060;-67
2022/03/09 09:39:20;;;;;;;6.85;2.67;;;;;;;19.59;11.51;100997.34;4999253;28;20205;-61
2022/03/09 09:42:05;;;;;;;4.72;2.20;;;;;;;19.95;11.10;100963.66;4993326;28;20097;-64
2022/03/09 09:44:52;;;;;;;4.68;2.70;;;;;;;20.03;10.90;101000.13;4996449;28;20084;-64
2022/03/09 09:47:37;;;;;;;15.82;2.70;;;;;;;20.14;11.21;100988.97;4996821;28;20541;-64
2022/03/09 09:50:23;;;;;;;8.65;2.53;;;;;;;19.21;11.67;100993.34;5010605;28;20100;-67
2022/03/09 09:53:11;;;;;;;3.83;2.20;;;;;;;20.07;11.27;100998.16;4995416;28;20045;-64
2022/03/09 09:55:58;;;;;;;6.30;2.45;;;;;;;20.77;10.57;100978.25;4986460;28;20580;-63
2022/03/09 09:58:44;;;;;;;10.38;2.88;;;;;;;21.38;10.41;100993.53;5005346;28;20040;-64
2022/03/09 10:01:29;;;;;;;7.68;2.58;;;;;;;21.54;10.16;100997.31;5014716;28;20450;-64
2022/03/09 10:04:13;;;;;;;;;;;;;;;22.17;9.55;101015.06;5018796;28;20092;-64
2022/03/09 10:06:59;;;;;;;6.38;2.85;;;;;;;21.41;9.81;100999.66;5010188;28;19935;-64
2022/03/09 10:09:45;;;;;;;6.63;2.65;;;;;;;21.32;10.46;101004.63;5012537;28;20056;-64
2022/03/09 10:12:29;;;;;;;4.00;2.65;;;;;;;21.78;10.21;100993.50;5029831;28;20176;-64
2022/03/09 10:15:17;;;;;;;3.58;2.20;;;;;;;22.04;10.01;101009.38;5020782;28;20053;-64
2022/03/09 10:18:12;;;;;;;3.50;2.30;;;;;;;21.68;10.22;100995.72;4994580;28;20422;-65
2022/03/09 10:21:11;;;;;;;6.78;2.40;;;;;;;21.59;10.13;101004.25;4979045;28;20092;-64
2022/03/09 10:24:01;;;;;;;7.78;2.35;;;;;;;21.89;9.79;101012.81;4982442;28;20089;-66
2022/03/09 10:26:47;;;;;;;5.28;2.25;;;;;;;21.22;9.87;101008.66;4994551;28;20109;-64
2022/03/09 10:29:32;;;;;;;6.72;2.20;;;;;;;20.84;9.98;101014.75;4957246;28;20048;-64
2022/03/09 10:32:18;;;;;;;5.40;1.88;;;;;;;20.97;9.78;101007.97;4978718;28;20470;-64
2022/03/09 10:35:03;;;;;;;5.20;2.30;;;;;;;21.31;9.63;101021.72;4966429;28;20455;-64
2022/03/09 10:37:48;;;;;;;8.15;2.20;;;;;;;21.83;9.41;101021.16;4992847;28;20110;-65
2022/03/09 10:40:40;;;;;;;5.32;2.47;;;;;;;22.28;9.79;101027.13;4992556;28;20057;-64
2022/03/09 10:43:29;;;;;;;4.05;2.13;;;;;;;22.78;9.27;101022.00;4969999;28;20155;-65
2022/03/09 10:46:16;;;;;;;10.90;2.65;;;;;;;22.93;9.17;101022.09;4977972;28;20057;-63
2022/03/09 10:49:01;;;;;;;6.53;2.65;;;;;;;23.49;9.08;101033.59;4979100;28;20106;-64
2022/03/09 10:51:51;;;;;;;4.75;2.08;;;;;;;23.46;8.87;101027.47;4977103;28;20077;-64
2022/03/09 10:54:35;;;;;;;5.20;2.90;;;;;;;22.96;9.23;101029.19;4963918;28;20060;-66
2022/03/09 10:57:29;;;;;;;5.15;2.30;;;;;;;23.12;9.12;101025.63;4961238;28;20053;-64
2022/03/09 11:00:14;;;;;;;6.15;2.53;;;;;;;21.94;9.42;101021.56;4997751;28;20081;-63
2022/03/09 11:03:08;;;;;;;4.28;2.33;;;;;;;22.44;9.76;101032.66;4986722;28;20077;-64
2022/03/09 11:06:02;;;;;;;4.15;2.30;;;;;;;22.15;9.46;101031.34;4988502;28;20056;-64
2022/03/09 11:08:48;;;;;;;3.42;2.25;;;;;;;22.22;9.28;101034.66;4986576;28;20055;-63
2022/03/09 11:11:33;;;;;;;6.40;2.55;;;;;;;22.97;9.49;101039.91;4987856;28;20096;-63
2022/03/09 11:14:20;;;;;;;3.30;2.75;;;;;;;22.96;9.16;101034.59;4987218;28;20483;-63
2022/03/09 11:17:06;;;;;;;6.07;2.60;;;;;;;22.38;9.16;101036.53;4999039;28;20057;-69
2022/03/09 11:19:51;;;;;;;4.18;2.42;;;;;;;21.17;9.61;100986.41;4988064;28;20438;-63
2022/03/09 11:22:36;;;;;;;3.25;2.35;;;;;;;20.01;9.68;101033.44;4984639;28;20111;-64
2022/03/09 11:25:23;;;;;;;5.03;2.53;;;;;;;20.52;10.27;101028.69;4988115;28;20060;-64
2022/03/09 11:28:12;;;;;;;12.30;2.95;;;;;;;20.19;10.15;101027.34;4987560;28;20205;-67
2022/03/09 11:31:01;;;;;;;3.40;2.40;;;;;;;19.79;10.49;101035.16;4986559;28;20060;-68
2022/03/09 11:33:49;;;;;;;4.60;2.58;;;;;;;19.37;10.68;101009.81;4986993;28;20491;-64
2022/03/09 11:36:35;;;;;;;5.07;2.40;;;;;;;19.41;10.76;101038.38;4960052;28;20081;-64
2022/03/09 11:39:24;;;;;;;6.68;2.55;;;;;;;17.60;11.43;101005.75;4986719;28;20073;-64
2022/03/09 11:42:21;;;;;;;4.95;2.78;;;;;;;18.39;11.53;101040.03;4959564;28;20048;-64
2022/03/09 11:45:22;;;;;;;5.38;2.67;;;;;;;17.65;12.03;101034.22;4986969;28;20192;-63
2022/03/09 11:48:14;;;;;;;5.10;2.72;;;;;;;16.17;12.41;101028.19;4971586;28;20073;-64
2022/03/09 11:51:03;;;;;;;8.05;3.10;;;;;;;15.96;13.15;101034.03;4987058;28;20152;-66
2022/03/09 11:54:00;;;;;;;9.70;2.95;;;;;;;15.77;12.83;101039.78;4987190;28;20221;-64
2022/03/09 11:56:54;;;;;;;6.00;2.38;;;;;;;15.58;12.91;101038.44;4970752;28;20391;-63
2022/03/09 11:59:40;;;;;;;5.53;2.40;;;;;;;14.09;13.47;101008.94;4985964;28;20440;-63
2022/03/09 12:02:39;;;;;;;9.75;2.72;;;;;;;13.90;13.84;101002.94;4988416;28;20137;-64
2022/03/09 12:05:39;;;;;;;7.07;2.70;;;;;;;14.12;13.84;101037.34;4974386;28;20072;-64
2022/03/09 12:08:44;;;;;;;6.35;2.45;;;;;;;13.76;14.97;101046.69;4978842;28;20050;-65
2022/03/09 12:11:30;;;;;;;4.60;2.38;;;;;;;12.44;14.81;101037.34;4970309;28;20058;-66
2022/03/09 12:14:15;;;;;;;6.78;2.40;;;;;;;11.90;14.82;101051.88;4956674;28;20049;-65
2022/03/09 12:17:00;;;;;;;5.13;2.13;;;;;;;11.61;15.87;101040.50;4954414;28;20066;-66
2022/03/09 12:20:16;;;;;;;6.78;2.75;;;;;;;10.99;15.91;101007.88;4970085;28;20069;-67
2022/03/09 12:23:04;;;;;;;5.00;2.70;;;;;;;10.57;16.38;101046.84;4974810;28;20570;-64
2022/03/09 12:25:50;;;;;;;6.97;2.90;;;;;;;10.35;16.12;101039.75;4984198;28;20856;-64
2022/03/09 12:28:35;;;;;;;4.93;2.28;;;;;;;9.50;16.53;101050.06;4986174;28;20398;-65
2022/03/09 12:31:23;;;;;;;4.65;2.72;;;;;;;9.37;17.15;101047.34;4976954;28;20399;-67
2022/03/09 12:34:08;;;;;;;4.60;2.60;;;;;;;9.34;17.56;101060.59;4961504;28;20111;-65
2022/03/09 12:36:53;;;;;;;25.40;3.25;;;;;;;9.35;17.29;101067.66;4991159;28;20482;-64
2022/03/09 12:39:39;;;;;;;11.07;2.90;;;;;;;8.87;17.47;101028.53;4981374;28;20519;-63
2022/03/09 12:42:24;;;;;;;3.97;2.25;;;;;;;9.17;17.55;101056.94;4996132;28;20053;-65
2022/03/09 12:45:09;;;;;;;8.88;2.70;;;;;;;8.91;18.06;101059.41;4996330;28;20116;-64
2022/03/09 12:47:54;;;;;;;6.60;2.70;;;;;;;8.53;18.19;101054.69;5009968;28;20081;-65
2022/03/09 12:50:40;;;;;;;4.22;2.63;;;;;;;8.26;18.35;101065.00;5010694;28;20049;-65
2022/03/09 12:53:25;;;;;;;5.78;2.53;;;;;;;7.87;18.64;101067.22;4999596;28;20096;-65
2022/03/09 12:56:21;;;;;;;4.47;2.50;;;;;;;8.29;18.84;101071.22;5003925;28;20053;-64